Time;durP1;ratioP1;P1;durP2;ratioP2;P2;SDS_P1;SDS_P2;PMS_P1;PMS_P2;Temp;Humidity;BMP_temperature;BMP_pressure;BME280_temperature;BME280_humidity;BME280_pressure;Samples;Min_cycle;Max_cycle;Signal;HPM_P1;HPM_P2
2023/06/05 00:00:00;;;;;;;6.03;4.60;;;;;;;20.38;50.00;95617.41;5031546;28;20209;-87
2023/06/05 00:02:27;;;;;;;5.22;4.60;;;;;;;20.32;50.17;95621.72;5031802;28;20198;-86
2023/06/05 00:04:54;;;;;;;5.95;4.88;;;;;;;20.31;50.47;95620.13;5031134;28;20641;-87
2023/06/05 00:07:20;;;;;;;5.25;4.57;;;;;;;20.40;50.19;95620.59;5031570;28;20806;-86
2023/06/05 00:09:47;;;;;;;5.93;5.38;;;;;;;20.28;50.96;95615.38;5031462;28;20202;-85
2023/06/05 00:12:15;;;;;;;5.80;4.72;;;;;;;20.32;50.65;95616.50;5031891;28;20619;-86
2023/06/05 00:14:43;;;;;;;5.90;5.22;;;;;;;20.31;51.07;95607.84;5031498;28;20575;-89
2023/06/05 00:17:10;;;;;;;5.25;4.85;;;;;;;20.31;51.13;95610.47;5023899;28;20218;-90
2023/06/05 00:19:36;;;;;;;5.47;4.95;;;;;;;20.36;51.32;95609.75;5031234;28;20198;-90
2023/06/05 00:22:03;;;;;;;5.18;4.70;;;;;;;20.41;50.57;95603.84;5031219;28;20317;-89
2023/06/05 00:24:29;;;;;;;5.32;4.25;;;;;;;20.33;51.42;95602.38;5031439;28;20225;-88
2023/06/05 00:26:55;;;;;;;6.03;4.95;;;;;;;20.34;51.11;95596.13;5030964;28;20202;-88
2023/06/05 00:29:23;;;;;;;5.47;4.70;;;;;;;20.31;51.25;95601.81;5031094;28;20202;-87
2023/06/05 00:31:49;;;;;;;5.18;4.68;;;;;;;20.27;51.07;95600.72;5031623;28;20221;-86
2023/06/05 00:34:16;;;;;;;5.22;4.72;;;;;;;20.27;50.94;95595.47;5031306;28;20195;-87
2023/06/05 00:36:42;;;;;;;5.55;4.13;;;;;;;20.25;51.00;95598.31;5030885;28;20202;-86
2023/06/05 00:39:09;;;;;;;5.88;4.88;;;;;;;20.17;51.91;95598.72;5030160;28;20230;-86
2023/06/05 00:41:36;;;;;;;6.63;5.00;;;;;;;20.16;51.81;95597.16;5030627;28;20285;-86
2023/06/05 00:44:03;;;;;;;7.45;4.65;;;;;;;20.11;52.23;95599.66;5028260;28;20671;-86
2023/06/05 00:46:31;;;;;;;5.85;4.90;;;;;;;20.05;52.15;95600.59;5029678;28;20221;-86
2023/06/05 00:48:57;;;;;;;5.10;4.70;;;;;;;20.04;52.74;95598.22;5030681;28;20320;-86
2023/06/05 00:51:23;;;;;;;5.38;4.88;;;;;;;20.00;53.18;95592.69;5021503;28;20247;-86
2023/06/05 00:53:51;;;;;;;5.78;5.18;;;;;;;20.05;53.25;95587.53;5050585;28;20205;-86
2023/06/05 00:56:20;;;;;;;7.30;5.40;;;;;;;20.06;53.55;95590.94;5029500;28;20209;-86
2023/06/05 00:58:47;;;;;;;9.45;5.32;;;;;;;20.00;53.68;95593.47;5030180;28;20230;-87
2023/06/05 01:01:15;;;;;;;6.30;4.97;;;;;;;19.90;54.44;95585.44;5030170;28;20292;-87
2023/06/05 01:03:44;;;;;;;6.60;5.45;;;;;;;19.89;54.93;95586.47;5030414;28;20282;-86
2023/06/05 01:06:11;;;;;;;6.50;5.50;;;;;;;19.91;55.01;95594.06;5029832;28;20641;-88
2023/06/05 01:08:39;;;;;;;6.32;5.18;;;;;;;19.92;54.59;95590.44;5030469;28;20295;-85
2023/06/05 01:11:11;;;;;;;5.95;5.35;;;;;;;19.89;55.53;95590.91;5030598;28;20206;-86
2023/06/05 01:13:42;;;;;;;6.38;5.68;;;;;;;19.72;56.73;95583.03;5029629;28;20198;-86
2023/06/05 01:16:09;;;;;;;8.55;5.97;;;;;;;19.64;56.75;95592.00;5030103;28;20198;-86
2023/06/05 01:18:40;;;;;;;6.93;5.70;;;;;;;19.58;57.56;95586.94;5030050;28;20304;-86
2023/06/05 01:21:16;;;;;;;5.88;5.38;;;;;;;19.62;57.82;95585.47;5029922;28;20222;-87
2023/06/05 01:23:44;;;;;;;6.97;5.82;;;;;;;19.62;58.22;95591.47;5029638;28;20194;-87
2023/06/05 01:26:17;;;;;;;7.63;6.13;;;;;;;19.64;57.94;95592.00;5029498;28;20226;-86
2023/06/05 01:28:48;;;;;;;7.32;6.07;;;;;;;19.55;59.03;95587.41;5029656;28;20233;-87
2023/06/05 01:31:19;;;;;;;6.78;6.18;;;;;;;19.46;59.58;95594.78;5029731;28;20697;-86
2023/06/05 01:33:52;;;;;;;6.65;6.07;;;;;;;19.46;60.10;95592.16;5029899;28;20208;-87
2023/06/05 01:36:19;;;;;;;7.13;6.53;;;;;;;19.41;60.39;95586.06;5029827;28;20635;-86
2023/06/05 01:38:49;;;;;;;7.55;6.78;;;;;;;19.47;60.57;95592.94;5029025;28;20229;-87
2023/06/05 01:41:16;;;;;;;7.28;6.43;;;;;;;19.45;60.70;95577.50;5029563;28;20233;-86
2023/06/05 01:43:45;;;;;;;6.88;6.22;;;;;;;19.43;60.64;95574.38;5028608;28;20799;-86
2023/06/05 01:46:12;;;;;;;7.50;6.80;;;;;;;19.35;61.09;95577.31;5029339;28;20229;-86
2023/06/05 01:48:39;;;;;;;7.15;6.53;;;;;;;19.32;61.78;95580.41;5030019;28;20383;-86
2023/06/05 01:51:05;;;;;;;7.05;6.45;;;;;;;19.23;62.29;95573.97;5018131;28;20226;-86
2023/06/05 01:53:32;;;;;;;7.55;6.85;;;;;;;19.17;62.06;95572.25;5029130;28;20210;-87
2023/06/05 01:56:00;;;;;;;7.60;6.88;;;;;;;19.12;62.31;95583.38;5028961;28;20198;-87
2023/06/05 01:58:27;;;;;;;7.93;7.15;;;;;;;19.10;62.97;95580.22;5029090;28;20222;-87
2023/06/05 02:00:56;;;;;;;7.65;6.97;;;;;;;19.18;62.61;95579.06;5029000;28;20209;-88
2023/06/05 02:03:23;;;;;;;7.90;7.05;;;;;;;19.10;63.25;95577.59;5029593;28;20264;-88
2023/06/05 02:05:51;;;;;;;10.95;7.35;;;;;;;19.12;63.28;95585.19;5029548;28;20214;-89
2023/06/05 02:08:19;;;;;;;7.75;6.60;;;;;;;19.11;63.50;95581.00;5029864;28;20218;-88
2023/06/05 02:10:45;;;;;;;7.38;6.68;;;;;;;19.11;62.76;95583.63;5028875;28;20202;-88
2023/06/05 02:13:15;;;;;;;7.57;6.78;;;;;;;19.12;63.99;95585.19;5029258;28;20701;-89
2023/06/05 02:15:41;;;;;;;7.90;7.15;;;;;;;19.24;63.31;95586.75;5028266;28;20190;-89
2023/06/05 02:18:08;;;;;;;10.95;7.22;;;;;;;19.20;63.84;95590.88;5029239;28;20287;-88
2023/06/05 02:20:35;;;;;;;7.68;6.90;;;;;;;19.14;63.72;95585.78;5028904;28;20285;-88
2023/06/05 02:23:02;;;;;;;8.18;7.45;;;;;;;19.12;63.86;95582.59;5029153;28;20241;-88
2023/06/05 02:25:29;;;;;;;7.80;6.90;;;;;;;19.21;62.86;95582.03;5028867;28;20618;-88
2023/06/05 02:27:56;;;;;;;7.45;6.78;;;;;;;19.23;63.47;95581.78;5028562;28;20786;-86
2023/06/05 02:30:24;;;;;;;8.25;7.47;;;;;;;19.17;63.67;95580.88;5028708;28;20289;-86
2023/06/05 02:32:56;;;;;;;8.30;7.32;;;;;;;19.11;64.17;95586.22;5028748;28;20233;-86
2023/06/05 02:35:23;;;;;;;9.70;7.15;;;;;;;19.13;63.54;95592.00;5028306;28;20202;-86
2023/06/05 02:37:50;;;;;;;8.40;7.50;;;;;;;19.10;64.17;95588.03;5028019;28;20248;-88
2023/06/05 02:40:16;;;;;;;7.90;7.18;;;;;;;19.10;64.31;95584.63;5028755;28;20201;-88
2023/06/05 02:42:43;;;;;;;7.25;6.55;;;;;;;19.03;64.20;95589.19;5027724;28;20198;-88
2023/06/05 02:45:10;;;;;;;8.23;7.13;;;;;;;18.99;64.92;95588.84;5028221;28;20202;-89
2023/06/05 02:47:38;;;;;;;9.07;7.50;;;;;;;18.91;65.04;95590.00;5028708;28;20627;-88
2023/06/05 02:50:05;;;;;;;7.93;7.13;;;;;;;18.95;64.71;95579.91;5023837;28;20195;-89
2023/06/05 02:52:35;;;;;;;7.40;6.43;;;;;;;19.02;64.71;95585.00;5023710;28;20205;-88
2023/06/05 02:55:02;;;;;;;7.75;6.95;;;;;;;18.94;65.14;95586.13;5027892;28;20213;-88
2023/06/05 02:57:29;;;;;;;8.27;7.47;;;;;;;18.91;64.73;95590.00;5028879;28;20622;-88
2023/06/05 02:59:56;;;;;;;8.00;7.05;;;;;;;18.75;66.35;95584.66;5028942;28;20224;-88
2023/06/05 03:02:23;;;;;;;7.60;6.95;;;;;;;18.74;66.42;95590.91;5028538;28;20198;-89
2023/06/05 03:04:55;;;;;;;8.77;7.20;;;;;;;18.77;65.83;95585.25;5028627;28;20205;-88
2023/06/05 03:07:22;;;;;;;8.20;7.50;;;;;;;18.68;66.55;95587.38;5031253;28;20218;-88
2023/06/05 03:09:49;;;;;;;8.00;7.30;;;;;;;18.78;66.15;95586.81;5032547;28;20252;-88
2023/06/05 03:12:15;;;;;;;8.15;7.43;;;;;;;18.70;66.82;95587.94;5032916;28;20205;-88
2023/06/05 03:14:41;;;;;;;7.90;7.20;;;;;;;18.68;66.62;95586.59;5032112;28;20202;-89
2023/06/05 03:17:08;;;;;;;8.27;7.47;;;;;;;18.47;68.02;95591.31;5032144;28;20799;-89
2023/06/05 03:19:34;;;;;;;8.52;7.65;;;;;;;18.36;68.29;95580.88;5032443;28;20199;-88
2023/06/05 03:22:03;;;;;;;8.40;7.57;;;;;;;18.34;68.89;95582.91;5032875;28;20198;-89
2023/06/05 03:24:30;;;;;;;8.23;7.45;;;;;;;18.20;69.77;95582.31;5032538;28;20195;-89
2023/06/05 03:26:56;;;;;;;8.02;7.32;;;;;;;18.19;69.55;95583.34;5032332;28;20218;-89
2023/06/05 03:29:23;;;;;;;8.25;7.40;;;;;;;18.28;68.82;95584.59;5032811;28;20222;-89
2023/06/05 03:31:49;;;;;;;8.00;7.20;;;;;;;18.29;69.17;95581.75;5032415;28;20637;-88
2023/06/05 03:34:16;;;;;;;8.40;7.63;;;;;;;18.16;70.02;95573.34;5032657;28;20280;-88
2023/06/05 03:36:42;;;;;;;7.63;6.97;;;;;;;18.07;70.93;95580.72;5032286;28;20198;-88
2023/06/05 03:39:11;;;;;;;8.57;7.78;;;;;;;18.10;70.59;95575.03;5032649;28;20225;-88
2023/06/05 03:41:38;;;;;;;7.72;7.13;;;;;;;18.14;69.35;95578.00;5032249;28;20229;-88
2023/06/05 03:44:04;;;;;;;8.00;7.30;;;;;;;18.10;70.79;95575.03;5031174;28;20209;-88
2023/06/05 03:46:31;;;;;;;8.02;7.22;;;;;;;18.08;71.09;95581.50;5031673;28;20225;-88
2023/06/05 03:48:59;;;;;;;8.10;7.40;;;;;;;18.11;70.67;95575.84;5032707;28;20241;-89
2023/06/05 03:51:29;;;;;;;8.10;7.30;;;;;;;18.23;70.10;95584.50;5034637;28;20199;-88
2023/06/05 03:53:57;;;;;;;8.95;7.22;;;;;;;18.18;70.14;95574.72;5035149;28;20198;-88
2023/06/05 03:56:28;;;;;;;8.02;7.22;;;;;;;18.20;70.64;95574.50;5043487;28;20284;-87
2023/06/05 03:58:55;;;;;;;7.50;6.80;;;;;;;18.30;69.55;95585.97;5053613;28;20229;-87
2023/06/05 04:01:21;;;;;;;8.20;7.40;;;;;;;18.34;69.30;95588.13;5054087;28;20201;-87
2023/06/05 04:03:47;;;;;;;8.05;7.25;;;;;;;18.53;68.83;95589.63;5044545;28;20202;-87
2023/06/05 04:06:14;;;;;;;7.45;6.82;;;;;;;18.52;68.99;95593.25;5035454;28;20229;-87
2023/06/05 04:08:40;;;;;;;8.02;7.25;;;;;;;18.57;68.45;95595.97;5035892;28;20226;-88
2023/06/05 04:11:07;;;;;;;7.60;6.53;;;;;;;18.60;68.66;95585.91;5035392;28;20202;-88
2023/06/05 04:13:34;;;;;;;8.10;7.30;;;;;;;18.60;68.76;95585.13;5037190;28;20293;-88
2023/06/05 04:16:02;;;;;;;8.10;7.40;;;;;;;18.57;68.78;95585.53;5036305;28;20240;-88
2023/06/05 04:18:28;;;;;;;8.07;7.47;;;;;;;18.45;69.27;95592.56;5033955;28;20218;-88
2023/06/05 04:20:55;;;;;;;7.60;6.90;;;;;;;18.34;69.43;95590.72;5033665;28;20190;-87
2023/06/05 04:23:22;;;;;;;8.60;7.07;;;;;;;18.26;70.13;95584.84;5033419;28;20201;-88
2023/06/05 04:25:49;;;;;;;8.40;7.53;;;;;;;18.22;70.36;95590.72;5033130;28;20222;-88
2023/06/05 04:28:16;;;;;;;8.35;7.65;;;;;;;18.13;70.57;95587.63;5030731;28;20225;-86
2023/06/05 04:30:45;;;;;;;8.77;7.88;;;;;;;18.17;70.53;95580.16;5018286;28;20233;-87
2023/06/05 04:33:12;;;;;;;8.60;7.38;;;;;;;18.18;71.00;95584.34;5023709;28;20206;-88
2023/06/05 04:35:39;;;;;;;9.02;8.13;;;;;;;18.21;70.81;95583.91;5033599;28;20678;-87
2023/06/05 04:38:12;;;;;;;8.13;7.32;;;;;;;18.17;71.14;95582.75;5032838;28;20225;-90
2023/06/05 04:40:38;;;;;;;8.60;7.80;;;;;;;18.16;70.98;95584.56;5032608;28;20234;-88
2023/06/05 04:43:05;;;;;;;9.13;8.30;;;;;;;18.21;70.63;95589.91;5032766;28;20202;-87
2023/06/05 04:45:31;;;;;;;8.43;7.72;;;;;;;18.33;70.21;95594.34;5027358;28;20238;-88
2023/06/05 04:48:02;;;;;;;8.35;7.55;;;;;;;18.34;70.24;95593.34;5021639;28;20218;-90
2023/06/05 04:50:33;;;;;;;10.60;7.63;;;;;;;18.41;70.17;95591.44;5029655;28;20209;-89
2023/06/05 04:53:00;;;;;;;7.68;6.82;;;;;;;18.57;69.07;95603.81;5028705;28;20248;-90
2023/06/05 04:55:26;;;;;;;8.20;7.38;;;;;;;18.69;68.70;95602.00;5028517;28;20209;-88
2023/06/05 04:57:54;;;;;;;7.65;6.95;;;;;;;18.82;68.04;95603.63;5029942;28;20233;-88
2023/06/05 05:00:21;;;;;;;8.02;7.22;;;;;;;18.76;68.09;95607.13;5032159;28;20197;-88
2023/06/05 05:02:50;;;;;;;8.57;7.70;;;;;;;18.77;68.17;95606.91;5028867;28;20194;-89
2023/06/05 05:05:19;;;;;;;8.75;7.53;;;;;;;18.91;67.51;95602.25;5029919;28;20198;-87
2023/06/05 05:07:46;;;;;;;7.95;7.15;;;;;;;18.84;67.80;95604.19;5030639;28;20299;-89
2023/06/05 05:10:13;;;;;;;11.73;7.13;;;;;;;18.83;68.60;95606.00;5028348;28;20205;-88
2023/06/05 05:12:39;;;;;;;8.75;7.35;;;;;;;18.86;68.18;95602.91;5030924;28;20191;-89
2023/06/05 05:15:11;;;;;;;8.00;7.10;;;;;;;18.93;67.92;95608.03;5030299;28;20289;-90
2023/06/05 05:17:38;;;;;;;9.02;7.40;;;;;;;19.01;67.29;95612.13;5024328;28;20309;-88
2023/06/05 05:20:06;;;;;;;8.75;7.95;;;;;;;19.01;68.54;95610.31;5031130;28;20194;-88
2023/06/05 05:22:58;;;;;;;;;;;;;;;;;;;;;
2023/06/05 05:25:36;;;;;;;10.70;7.55;;;;;;;19.26;67.44;95610.03;5030019;28;20206;-88
2023/06/05 05:28:33;;;;;;;8.73;7.72;;;;;;;19.24;67.91;95612.88;5029332;28;20237;-88
2023/06/05 05:31:15;;;;;;;7.82;7.15;;;;;;;19.28;67.89;95608.78;5028270;28;20248;-89
2023/06/05 05:33:42;;;;;;;62.03;55.78;;;;;;;19.36;66.38;95612.06;5030054;28;20186;-87
2023/06/05 05:36:09;;;;;;;16.25;14.75;;;;;;;19.30;65.74;95611.97;5029850;28;20581;-90
2023/06/05 05:45:55;;;;;;;9.45;8.18;;;;;;;19.18;66.49;95607.78;5020489;28;20201;-90
2023/06/05 05:48:52;;;;;;;9.40;7.72;;;;;;;19.21;67.32;95618.56;5014175;28;20261;-89
2023/06/05 05:51:22;;;;;;;8.88;7.68;;;;;;;19.24;66.97;95615.47;4950288;28;20633;-88
2023/06/05 05:53:55;;;;;;;9.10;8.13;;;;;;;19.26;66.71;95620.47;4968385;28;20204;-88
2023/06/05 05:56:43;;;;;;;19.55;15.95;;;;;;;19.24;67.17;95610.25;5004589;28;20581;-90
2023/06/05 05:59:12;;;;;;;25.70;22.67;;;;;;;19.40;66.98;95618.41;4990998;28;20219;-88
2023/06/05 06:01:50;;;;;;;10.38;8.45;;;;;;;19.52;65.72;95614.78;4989830;28;20196;-89
2023/06/05 06:04:27;;;;;;;9.02;7.70;;;;;;;19.51;66.23;95621.03;4990524;28;20199;-89
2023/06/05 06:07:08;;;;;;;8.80;8.07;;;;;;;19.42;66.20;95617.16;4989449;28;20215;-89
2023/06/05 06:13:06;;;;;;;11.90;8.93;;;;;;;19.25;67.26;95624.91;4966135;28;20212;-89
2023/06/05 06:15:44;;;;;;;9.73;8.63;;;;;;;19.29;66.85;95625.22;4994826;28;20203;-88
2023/06/05 06:18:25;;;;;;;9.40;8.50;;;;;;;19.30;67.48;95630.22;5008589;28;20236;-89
2023/06/05 06:21:12;;;;;;;8.82;7.93;;;;;;;19.19;67.68;95632.88;5008353;28;20285;-89
2023/06/05 06:30:57;;;;;;;8.27;7.47;;;;;;;19.18;68.09;95629.47;4978329;28;20615;-89
2023/06/05 06:33:25;;;;;;;11.00;8.27;;;;;;;19.33;68.07;95621.16;4988627;28;20199;-89
2023/06/05 06:36:01;;;;;;;7.97;7.28;;;;;;;19.40;67.76;95621.81;5009312;28;20294;-89
2023/06/05 06:44:57;;;;;;;;;;;;;;;;;;;;;
2023/06/05 06:47:29;;;;;;;10.65;9.63;;;;;;;19.47;66.75;95632.91;5001652;28;20241;-88
2023/06/05 06:53:34;;;;;;;9.10;7.30;;;;;;;19.51;67.20;95633.28;5013259;28;20211;-89
2023/06/05 06:59:48;;;;;;;8.27;7.50;;;;;;;19.76;66.68;95639.03;4985498;28;20227;-89
2023/06/05 07:05:32;;;;;;;8.75;7.40;;;;;;;19.76;66.30;95638.22;5007761;28;20238;-89
2023/06/05 07:18:52;;;;;;;9.70;8.13;;;;;;;20.04;65.55;95638.22;4825204;29;20231;-91
2023/06/05 07:21:43;;;;;;;10.90;8.93;;;;;;;20.23;65.43;95639.59;4850423;29;20712;-91
2023/06/05 07:24:15;;;;;;;9.23;8.38;;;;;;;20.34;64.59;95640.59;4889819;29;20243;-89
2023/06/05 07:27:13;;;;;;;8.52;7.78;;;;;;;20.43;64.38;95628.72;5006793;28;20195;-89
2023/06/05 07:39:44;;;;;;;7.32;6.30;;;;;;;20.76;63.85;95635.00;4976857;28;20407;-90
2023/06/05 07:42:11;;;;;;;10.18;8.48;;;;;;;20.70;62.75;95636.75;5008549;28;20198;-89
2023/06/05 07:48:13;;;;;;;21.90;19.63;;;;;;;20.85;62.70;95636.97;4980226;28;20226;-90
2023/06/05 07:54:36;;;;;;;7.93;7.13;;;;;;;21.31;60.73;95629.81;4834776;29;20690;-90
2023/06/05 07:57:07;;;;;;;8.00;7.30;;;;;;;21.45;60.61;95631.03;4949930;29;20745;-89
2023/06/05 07:59:50;;;;;;;7.22;6.53;;;;;;;21.64;60.19;95624.44;4950825;29;20758;-90
2023/06/05 08:02:35;;;;;;;8.15;6.32;;;;;;;21.76;58.73;95626.13;4951186;28;20307;-90
2023/06/05 08:08:27;;;;;;;7.10;6.40;;;;;;;22.01;58.07;95624.59;4989047;28;20309;-89
2023/06/05 08:14:21;;;;;;;7.20;6.50;;;;;;;21.82;57.49;95614.66;5009520;28;20214;-90
2023/06/05 08:16:51;;;;;;;7.25;6.63;;;;;;;21.99;57.07;95620.63;5009619;28;20225;-88
2023/06/05 08:20:15;;;;;;;6.90;6.20;;;;;;;21.92;56.53;95614.78;5010251;28;20226;-89
2023/06/05 08:22:55;;;;;;;7.20;5.88;;;;;;;22.26;56.09;95621.44;5012397;28;20198;-89
2023/06/05 08:32:31;;;;;;;5.85;5.30;;;;;;;22.76;53.75;95615.00;4802351;29;20764;-89
2023/06/05 08:38:58;;;;;;;6.72;5.40;;;;;;;22.72;53.25;95608.69;4800426;29;20233;-89
2023/06/05 08:42:30;;;;;;;;;;;;;;;;;;;;;
2023/06/05 08:45:26;;;;;;;19.70;17.38;;;;;;;23.00;51.42;95613.63;4930791;29;20858;-91
2023/06/05 08:52:06;;;;;;;;;;;;;;;;;;;;;
2023/06/05 08:54:37;;;;;;;6.72;6.00;;;;;;;23.30;50.54;95614.84;4927933;28;20207;-89
2023/06/05 08:57:12;;;;;;;8.38;6.10;;;;;;;23.46;50.42;95606.00;4989723;28;20205;-90
2023/06/05 08:59:42;;;;;;;6.35;5.55;;;;;;;23.68;50.77;95611.09;4994828;28;20229;-88
2023/06/05 09:05:24;;;;;;;5.68;5.15;;;;;;;23.82;49.06;95612.19;5003882;28;20289;-91
2023/06/05 09:08:02;;;;;;;7.38;6.05;;;;;;;23.67;48.14;95612.13;4991899;28;20665;-89
2023/06/05 09:10:49;;;;;;;9.25;5.68;;;;;;;23.89;47.82;95596.94;4995846;28;20238;-88
2023/06/05 09:17:06;;;;;;;;;;;;;;;;;;;;;
2023/06/05 09:23:14;;;;;;;5.95;5.45;;;;;;;24.12;47.67;95603.56;4923061;28;20229;-90
2023/06/05 09:29:12;;;;;;;7.00;6.20;;;;;;;24.15;47.55;95602.25;4970827;28;20837;-90
2023/06/05 09:35:08;;;;;;;7.75;5.80;;;;;;;24.53;45.94;95596.53;5004662;28;20282;-91
2023/06/05 09:37:51;;;;;;;5.72;5.03;;;;;;;24.51;45.41;95590.72;5020953;28;20301;-90
2023/06/05 09:40:43;;;;;;;5.88;5.35;;;;;;;24.57;45.48;95587.06;5009848;28;20221;-89
2023/06/05 09:43:22;;;;;;;5.72;5.22;;;;;;;24.57;45.08;95587.06;5008408;28;20198;-90
2023/06/05 09:45:51;;;;;;;6.03;5.53;;;;;;;24.86;44.22;95587.28;5006542;28;20198;-90
2023/06/05 09:48:25;;;;;;;5.90;4.95;;;;;;;25.13;44.87;95585.16;5008412;28;20226;-90
2023/06/05 09:50:54;;;;;;;6.75;5.65;;;;;;;25.40;44.87;95582.13;5000358;28;20202;-89
2023/06/05 09:53:21;;;;;;;5.97;5.40;;;;;;;25.34;44.20;95577.97;5028071;28;20206;-89
2023/06/05 09:55:53;;;;;;;6.10;5.57;;;;;;;25.42;44.27;95577.38;5017342;28;20192;-90
2023/06/05 09:58:50;;;;;;;7.25;5.80;;;;;;;25.40;44.24;95579.50;5000164;28;20298;-88
2023/06/05 10:14:14;;;;;;;8.25;5.18;;;;;;;25.24;41.94;95564.81;5000818;28;20207;-85
2023/06/05 10:16:41;;;;;;;5.60;5.00;;;;;;;25.35;42.59;95571.63;5010612;28;20312;-84
2023/06/05 10:19:14;;;;;;;5.80;5.10;;;;;;;25.39;41.50;95566.63;5012923;28;20762;-87
2023/06/05 10:22:02;;;;;;;7.05;6.28;;;;;;;25.61;42.47;95564.38;5012135;28;20282;-87
2023/06/05 10:24:52;;;;;;;6.35;5.72;;;;;;;25.59;41.85;95555.19;5009481;28;20198;-86
2023/06/05 10:30:51;;;;;;;;;;;;;;;;;;;;;
2023/06/05 10:34:18;;;;;;;7.32;5.07;;;;;;;26.50;40.42;95562.53;4950563;28;20287;-87
2023/06/05 10:37:03;;;;;;;5.55;5.05;;;;;;;26.70;40.32;95554.44;4945718;28;20205;-85
2023/06/05 10:42:34;;;;;;;6.65;5.32;;;;;;;26.63;39.23;95546.03;5007644;28;20214;-88
2023/06/05 10:46:11;;;;;;;5.18;4.65;;;;;;;26.79;39.95;95558.03;4990249;28;20200;-88
2023/06/05 10:49:51;;;;;;;5.18;4.68;;;;;;;26.71;39.27;95545.44;4927283;29;20284;-86
2023/06/05 11:01:34;;;;;;;7.93;6.20;;;;;;;26.60;38.95;95546.59;4989416;28;20199;-89
2023/06/05 11:04:16;;;;;;;5.88;5.20;;;;;;;26.46;38.43;95540.38;4938306;28;20206;-88
2023/06/05 11:33:19;;;;;;;5.50;5.00;;;;;;;26.10;39.99;95527.44;4912524;29;20787;-88
2023/06/05 11:39:03;;;;;;;5.32;4.90;;;;;;;25.86;41.04;95523.94;4948152;29;20217;-88
2023/06/05 11:42:05;;;;;;;6.80;5.80;;;;;;;25.60;41.01;95527.72;4973130;28;20593;-88
2023/06/05 11:48:12;;;;;;;5.53;5.03;;;;;;;25.04;41.34;95526.13;5043089;28;20585;-89
2023/06/05 11:51:21;;;;;;;;;;;;;;;;;;;;;
2023/06/05 11:53:49;;;;;;;5.90;5.30;;;;;;;24.85;42.89;95517.22;4972432;28;20287;-89
2023/06/05 12:04:05;;;;;;;5.55;5.05;;;;;;;24.82;42.34;95520.41;4952678;28;20575;-90
2023/06/05 12:06:48;;;;;;;9.13;4.57;;;;;;;24.69;43.79;95516.47;4968447;28;20204;-88
2023/06/05 12:52:46;;;;;;;5.68;4.90;;;;;;;24.19;46.32;95490.97;5335621;23;20789;-88
2023/06/05 12:55:15;;;;;;;4.97;4.53;;;;;;;24.38;45.61;95491.25;5027867;28;20202;-87
2023/06/05 13:21:13;;;;;;;6.40;4.90;;;;;;;24.06;46.92;95487.00;5119901;23;20729;-89
2023/06/05 13:23:43;;;;;;;6.10;4.55;;;;;;;23.96;47.26;95483.59;4970437;28;20255;-89
2023/06/05 13:45:39;;;;;;;4.70;4.13;;;;;;;24.19;48.31;95480.44;4990389;28;20186;-89
2023/06/05 13:51:35;;;;;;;6.35;4.32;;;;;;;23.96;48.02;95478.34;4962602;28;20191;-90
2023/06/05 13:57:31;;;;;;;5.45;4.10;;;;;;;24.00;48.07;95476.78;4964525;28;20219;-89
2023/06/05 14:00:10;;;;;;;4.47;4.05;;;;;;;24.09;48.01;95467.28;4967388;28;20219;-89
2023/06/05 14:02:40;;;;;;;4.43;4.03;;;;;;;23.92;48.10;95483.34;4999488;28;20207;-89
2023/06/05 14:05:11;;;;;;;8.40;4.10;;;;;;;23.73;48.53;95471.75;4997938;28;20194;-90
2023/06/05 14:10:40;;;;;;;;;;;;;;;;;;;;;
2023/06/05 14:13:10;;;;;;;3.88;3.47;;;;;;;23.69;48.63;95474.09;5028700;28;20210;-90
2023/06/05 14:16:14;;;;;;;3.70;3.40;;;;;;;23.84;48.46;95467.31;5028847;28;20206;-89
2023/06/05 14:19:32;;;;;;;4.72;3.88;;;;;;;23.86;48.38;95459.94;5015955;28;20314;-90
2023/06/05 14:28:58;;;;;;;5.53;3.42;;;;;;;23.74;48.03;95463.59;5124682;22;20256;-89
2023/06/05 14:34:34;;;;;;;4.20;3.72;;;;;;;23.57;48.46;95463.06;5045185;28;20212;-91
2023/06/05 14:37:11;;;;;;;3.83;3.53;;;;;;;23.75;48.48;95457.28;5048894;28;20209;-90
2023/06/05 14:39:45;;;;;;;3.58;3.28;;;;;;;23.96;48.14;95454.66;5028529;28;20205;-91
2023/06/05 14:45:32;;;;;;;4.72;3.45;;;;;;;24.04;47.01;95456.78;5027732;28;20213;-90
2023/06/05 14:48:10;;;;;;;4.85;3.55;;;;;;;24.10;47.02;95459.13;5028571;28;20222;-89
2023/06/05 14:50:41;;;;;;;4.25;3.25;;;;;;;24.01;47.18;95458.09;5028952;28;20218;-90
2023/06/05 14:53:34;;;;;;;3.55;3.28;;;;;;;24.08;47.98;95458.59;5029052;28;20600;-90
2023/06/05 14:56:00;;;;;;;3.97;3.03;;;;;;;24.24;47.35;95456.81;5028817;28;20201;-89
2023/06/05 15:01:44;;;;;;;5.60;3.63;;;;;;;24.00;47.96;95469.69;5028201;28;20216;-90
2023/06/05 15:10:15;;;;;;;5.30;3.97;;;;;;;23.93;47.60;95453.34;5031585;28;20291;-90
2023/06/05 15:13:24;;;;;;;5.70;4.57;;;;;;;23.94;47.15;95468.09;5032385;28;20209;-90
2023/06/05 15:25:33;;;;;;;4.00;3.60;;;;;;;23.63;48.39;95462.03;5031964;28;20281;-90
2023/06/05 15:28:06;;;;;;;4.43;3.65;;;;;;;23.60;49.01;95467.81;5031963;28;20217;-90
2023/06/05 15:30:54;;;;;;;;;;;;;;;;;;;;;
2023/06/05 15:36:11;;;;;;;3.60;3.35;;;;;;;23.41;48.90;95470.09;5031215;28;20233;-89
2023/06/05 15:39:10;;;;;;;7.55;3.20;;;;;;;23.47;48.66;95468.28;5030917;28;20214;-91
2023/06/05 15:42:25;;;;;;;4.07;3.20;;;;;;;23.54;49.03;95462.78;4969976;28;20280;-91
2023/06/05 15:45:23;;;;;;;4.30;3.42;;;;;;;23.48;49.73;95463.78;4970018;28;20208;-90
2023/06/05 15:54:58;;;;;;;3.80;3.50;;;;;;;23.26;50.18;95459.56;4929299;29;20245;-85
2023/06/05 15:57:25;;;;;;;3.80;3.38;;;;;;;23.29;50.35;95461.66;4953526;28;20246;-85
2023/06/05 15:59:51;;;;;;;3.38;3.05;;;;;;;23.39;50.07;95464.31;5010136;28;20209;-86
2023/06/05 16:02:18;;;;;;;3.92;3.53;;;;;;;23.47;50.19;95465.66;5033894;28;20240;-84
2023/06/05 16:04:45;;;;;;;4.72;3.30;;;;;;;23.22;49.85;95465.59;5033254;28;20205;-84
2023/06/05 16:07:11;;;;;;;3.78;3.35;;;;;;;23.17;50.37;95462.94;5033029;28;20208;-84
2023/06/05 16:09:38;;;;;;;5.38;3.58;;;;;;;23.17;50.59;95465.56;5031133;28;20597;-86
2023/06/05 16:12:13;;;;;;;6.32;4.30;;;;;;;23.21;50.61;95470.06;5030501;28;20655;-86
2023/06/05 16:17:36;;;;;;;4.68;4.00;;;;;;;23.01;50.78;95462.09;5022991;28;20726;-89
2023/06/05 16:20:14;;;;;;;4.15;3.40;;;;;;;22.89;50.77;95472.03;5028485;28;20570;-87
2023/06/05 16:25:21;;;;;;;4.50;3.50;;;;;;;23.17;50.38;95470.81;5028263;28;20194;-86
2023/06/05 16:31:08;;;;;;;4.25;3.53;;;;;;;23.13;51.17;95473.16;5020167;28;20665;-87
2023/06/05 16:33:39;;;;;;;3.75;3.40;;;;;;;22.99;51.69;95483.38;5025330;28;20895;-89
2023/06/05 16:39:30;;;;;;;3.47;3.25;;;;;;;22.83;51.74;95481.72;5027177;28;20218;-89
2023/06/05 16:45:03;;;;;;;3.47;3.17;;;;;;;22.63;52.31;95471.09;4954254;28;20203;-90
2023/06/05 16:47:31;;;;;;;4.40;3.53;;;;;;;22.57;52.20;95466.84;4988534;28;20223;-89
2023/06/05 16:53:23;;;;;;;3.63;3.33;;;;;;;22.34;53.31;95466.19;4978718;28;20203;-91
2023/06/05 16:56:05;;;;;;;4.15;3.75;;;;;;;22.42;53.23;95464.94;4985567;28;20564;-91
2023/06/05 16:58:46;;;;;;;3.90;3.60;;;;;;;22.47;52.60;95458.94;4987207;28;20226;-92
2023/06/05 17:01:30;;;;;;;3.75;3.33;;;;;;;22.46;52.46;95468.63;4986475;28;20266;-89
2023/06/05 17:04:08;;;;;;;6.03;3.40;;;;;;;22.38;52.54;95466.47;5024770;28;20201;-87
2023/06/05 17:09:32;;;;;;;3.55;3.25;;;;;;;22.28;52.70;95471.69;5025256;28;20761;-85
2023/06/05 17:12:31;;;;;;;3.42;3.13;;;;;;;22.20;52.60;95482.63;5030163;28;20196;-86
2023/06/05 17:15:29;;;;;;;3.80;3.50;;;;;;;22.17;53.72;95489.16;5025245;28;20198;-87
2023/06/05 17:20:59;;;;;;;4.20;3.90;;;;;;;22.15;53.61;95483.38;5023116;28;20289;-87
2023/06/05 17:27:57;;;;;;;;;;;;;;;;;;;;;
2023/06/05 17:34:17;;;;;;;;;;;;;;;;;;;;;
2023/06/05 17:36:44;;;;;;;5.20;4.25;;;;;;;21.78;54.46;95488.53;5022950;28;20209;-86
2023/06/05 17:39:15;;;;;;;4.13;3.72;;;;;;;21.79;54.16;95486.72;5031874;28;20924;-87
2023/06/05 17:42:26;;;;;;;5.30;4.78;;;;;;;21.81;54.36;95501.16;5032118;28;20198;-86
2023/06/05 17:44:59;;;;;;;4.22;3.88;;;;;;;21.82;54.45;95496.72;4994510;28;20198;-84
2023/06/05 17:47:34;;;;;;;5.15;4.65;;;;;;;21.85;54.41;95502.25;5044593;28;20634;-84
2023/06/05 17:50:12;;;;;;;3.83;3.53;;;;;;;21.85;54.22;95506.69;5031135;28;20218;-84
2023/06/05 17:52:43;;;;;;;4.07;3.78;;;;;;;21.76;54.64;95503.72;5032391;28;20202;-83
2023/06/05 17:55:16;;;;;;;4.00;3.58;;;;;;;21.77;54.53;95507.94;5031455;28;20205;-85
2023/06/05 17:58:05;;;;;;;4.38;3.92;;;;;;;21.67;55.04;95510.47;5025104;28;20312;-83